Estación de La Cruz
Ultimos registro cada 15 minutos 48
| N° | Estación | Fecha / Hora | Temperatura | Humedad | Lluvia | Velocidad | Dirección | Radiación | Presion |
| 48 | La Cruz | 09-05-2026 11:45 | 24,2 | 38,7 | 0 | 0 | 326 | 628,1 | 996,7 |
| 47 | La Cruz | 09-05-2026 11:30 | 23,4 | 40,9 | 0 | 0 | 1 | 608,1 | 997 |
| 46 | La Cruz | 09-05-2026 11:15 | 22,7 | 42,2 | 0 | 0 | 6 | 590,6 | 997,1 |
| 45 | La Cruz | 09-05-2026 11:00 | 21,4 | 45,4 | 0 | 0 | 334 | 560,6 | 997,2 |
| 44 | La Cruz | 09-05-2026 10:45 | 20,8 | 49 | 0 | 0 | 350 | 533,1 | 997,5 |
| 43 | La Cruz | 09-05-2026 10:30 | 18,4 | 56,5 | 0 | 0 | 10 | 501,9 | 997,7 |
| 42 | La Cruz | 09-05-2026 10:15 | 17,7 | 56,6 | 0 | 0 | 331 | 466,9 | 997,8 |
| 41 | La Cruz | 09-05-2026 10:00 | 15,4 | 62,6 | 0 | 0 | 351 | 233,1 | 998 |
| 40 | La Cruz | 09-05-2026 09:45 | 14,3 | 65,8 | 0 | 0 | 357 | 73,1 | 998 |
| 39 | La Cruz | 09-05-2026 09:30 | 12,8 | 69,4 | 0 | 0 | 341 | 116,9 | 998 |
| 38 | La Cruz | 09-05-2026 09:15 | 11,7 | 74,4 | 0 | 0 | 350 | 95,6 | 998,2 |
| 37 | La Cruz | 09-05-2026 09:00 | 9,9 | 81,6 | 0 | 0 | 348 | 83,1 | 998,1 |
| 36 | La Cruz | 09-05-2026 08:45 | 8,4 | 89,2 | 0 | 0 | 357 | 60,6 | 998 |
| 35 | La Cruz | 09-05-2026 08:30 | 7,6 | 94,5 | 0 | 0 | 39 | 35,6 | 997,9 |
| 34 | La Cruz | 09-05-2026 08:15 | 6,5 | 95,3 | 0 | 0 | 62 | 29,4 | 997,8 |
| 33 | La Cruz | 09-05-2026 08:00 | 6,6 | 96,1 | 0 | 0 | 102 | 19,4 | 997,6 |
| 32 | La Cruz | 09-05-2026 07:45 | 4,4 | 95,8 | 0 | 0 | 152 | 8,1 | 997,7 |
| 31 | La Cruz | 09-05-2026 07:30 | 3 | 95,2 | 0 | 0 | 154 | 3,1 | 997,9 |
| 30 | La Cruz | 09-05-2026 07:15 | 3 | 95,2 | 0 | 0 | 154 | 0,6 | 998 |
| 29 | La Cruz | 09-05-2026 07:00 | 3,2 | 95 | 0 | 0 | 154 | 0,6 | 998 |
| 28 | La Cruz | 09-05-2026 06:45 | 3,9 | 95,1 | 0 | 0 | 154 | 0,6 | 997,9 |
| 27 | La Cruz | 09-05-2026 06:30 | 4,9 | 95,6 | 0 | 0 | 154 | 0,6 | 997,7 |
| 26 | La Cruz | 09-05-2026 06:15 | 3,7 | 95,3 | 0 | 0 | 154 | 0,6 | 997,7 |
| 25 | La Cruz | 09-05-2026 06:00 | 2,4 | 94,7 | 0 | 0 | 154 | 0,6 | 997,9 |
| 24 | La Cruz | 09-05-2026 05:45 | 2,9 | 94,8 | 0 | 0 | 154 | 0,6 | 997,9 |
| 23 | La Cruz | 09-05-2026 05:30 | 2,9 | 94,7 | 0 | 0 | 154 | 0,6 | 997,8 |
| 22 | La Cruz | 09-05-2026 05:15 | 3,3 | 94,6 | 0 | 0 | 154 | 0,6 | 997,7 |
| 21 | La Cruz | 09-05-2026 05:00 | 3,3 | 94,5 | 0 | 0 | 154 | 0,6 | 997,4 |
| 20 | La Cruz | 09-05-2026 04:45 | 3,8 | 94,6 | 0 | 0 | 154 | 0,6 | 997,4 |
| 19 | La Cruz | 09-05-2026 04:30 | 4 | 94,7 | 0 | 0 | 154 | 0,6 | 997,4 |
| 18 | La Cruz | 09-05-2026 04:15 | 3,3 | 94,5 | 0 | 0 | 154 | 0,6 | 997,4 |
| 17 | La Cruz | 09-05-2026 04:00 | 3 | 94 | 0 | 0 | 154 | 0,6 | 997,3 |
| 16 | La Cruz | 09-05-2026 03:45 | 3,6 | 94,2 | 0 | 0 | 154 | 0,6 | 997,6 |
| 15 | La Cruz | 09-05-2026 03:30 | 3,6 | 94,1 | 0 | 0 | 154 | 0,6 | 997,4 |
| 14 | La Cruz | 09-05-2026 03:15 | 4,3 | 94,3 | 0 | 0 | 154 | 0,6 | 997,5 |
| 13 | La Cruz | 09-05-2026 03:00 | 4,3 | 94,1 | 0 | 0 | 154 | 0,6 | 997,6 |
| 12 | La Cruz | 09-05-2026 02:45 | 4,3 | 93,9 | 0 | 0 | 154 | 0,6 | 997,9 |
| 11 | La Cruz | 09-05-2026 02:30 | 4,4 | 93,8 | 0 | 0 | 154 | 0,6 | 998,1 |
| 10 | La Cruz | 09-05-2026 02:15 | 4,5 | 93,8 | 0 | 0 | 154 | 0,6 | 998,1 |
| 9 | La Cruz | 09-05-2026 02:00 | 4,3 | 93,6 | 0 | 0 | 154 | 0,6 | 998,4 |
| 8 | La Cruz | 09-05-2026 01:45 | 4,5 | 93,1 | 0 | 0 | 154 | 0,6 | 998,6 |
| 7 | La Cruz | 09-05-2026 01:30 | 5,1 | 93,2 | 0 | 0 | 154 | 0,6 | 998,7 |
| 6 | La Cruz | 09-05-2026 01:15 | 5,5 | 93,3 | 0 | 0 | 154 | 0,6 | 998,6 |
| 5 | La Cruz | 09-05-2026 01:00 | 6 | 93,2 | 0 | 0 | 154 | 0,6 | 998,6 |
| 4 | La Cruz | 09-05-2026 00:45 | 6,1 | 93,2 | 0 | 0 | 154 | 0,6 | 998,8 |
| 3 | La Cruz | 09-05-2026 00:30 | 5,7 | 92,7 | 0 | 0 | 154 | 0,6 | 998,9 |
| 2 | La Cruz | 09-05-2026 00:15 | 5,5 | 91,9 | 0 | 0 | 154 | 0,6 | 999 |
| 1 | La Cruz | 09-05-2026 00:00 | 6,1 | 92,1 | 0 | 0 | 154 | 0,6 | 999,3 |